Latest Coastal Weather Observations for Broome Port

IDW60701

Issued at 2:32 pm WST Friday 27 May 2016 (issued every 10 minutes, with the page automatically refreshed every 10 minutes)

About coastal observations | Map of coastal stations | Coastal observations for WA | Marine services | Other Formats
Station Details ID: 003102 Name: BROOME NTC AWS Lat: -18.00 Lon: 122.22 Height: 0.0 m
Data from the previous 72 hours. | See also: Recent months for locations in Western Australia
Date/Time
WST
Temp

°C
Wind Pressure Rain
since 9am
mm
Weather Cloud Vis
km
Sea
Height
m
Swell
Dir
 
Speed
knots
Gust
knots
hPa Trend Height
m
Period
s
Dir
27/02:30pm - W 11 13 1011.7 - - - - - - - - -
27/02:00pm - W 11 13 1011.8 - - - - - - - - -
27/01:30pm - W 7 8 1012.1 - - - - - - - - -
27/01:00pm - W 6 9 1012.4 - - - - - - - - -
27/12:30pm - W 8 10 1012.8 - - - - - - - - -
27/12:00pm - WSW 8 11 1013.3 - - - - - - - - -
27/11:30am - WSW 7 9 1013.9 - - - - - - - - -
27/11:00am - WSW 6 8 1014.2 - - - - - - - - -
27/10:30am - SW 4 5 1014.8 - - - - - - - - -
27/10:00am - SSW 4 6 1015.1 - - - - - - - - -
27/09:30am - S 6 8 1015.4 - - - - - - - - -
27/09:00am - S 7 9 1015.4 - - - - - - - - -
27/08:30am - S 8 9 1015.3 - - - - - - - - -
27/08:00am - S 8 10 1014.9 - - - - - - - - -
27/07:30am - S 5 6 1014.5 - - - - - - - - -
27/07:00am - S 4 5 1014.3 - - - - - - - - -
27/06:30am - S 5 6 1014.1 - - - - - - - - -
27/06:00am - S 4 5 1013.9 - - - - - - - - -
27/05:30am - S 3 4 1013.6 - - - - - - - - -
27/05:00am - ESE 2 3 1013.2 - - - - - - - - -
27/04:30am - SSE 3 4 1013.2 - - - - - - - - -
27/04:00am - SSE 4 5 1013.0 - - - - - - - - -
27/03:30am - SSE 4 5 1012.8 - - - - - - - - -
27/03:00am - SSW 5 6 1012.8 - - - - - - - - -
27/02:30am - SSW 6 7 1013.2 - - - - - - - - -
27/02:00am - SSW 7 8 1013.3 - - - - - - - - -
27/01:30am - SW 7 8 1013.4 - - - - - - - - -
27/01:00am - SW 10 11 1013.6 - - - - - - - - -
27/12:30am - SW 11 12 1014.2 - - - - - - - - -
27/12:00am - SW 11 13 1014.1 - - - - - - - - -
 
Date/Time
WST
Temp

°C
Wind Pressure Rain
since 9am
mm
Weather Cloud Vis
km
Sea
Height
m
Swell
Dir
 
Speed
knots
Gust
knots
hPa Trend Height
m
Period
s
Dir
26/11:30pm - SW 10 12 1013.9 - - - - - - - - -
26/11:00pm - SW 11 13 1013.8 - - - - - - - - -
26/10:30pm - SW 12 15 1014.1 - - - - - - - - -
26/10:00pm - SW 11 14 1014.0 - - - - - - - - -
26/09:30pm - SW 9 12 1014.0 - - - - - - - - -
26/09:00pm - WSW 8 9 1013.9 - - - - - - - - -
26/08:30pm - WSW 8 9 1013.6 - - - - - - - - -
26/08:00pm - WSW 9 10 1013.7 - - - - - - - - -
26/07:30pm - WSW 9 12 1013.6 - - - - - - - - -
26/07:00pm - WSW 9 11 1013.5 - - - - - - - - -
26/06:30pm - WSW 9 11 1013.2 - - - - - - - - -
26/06:00pm - W 9 12 1013.0 - - - - - - - - -
26/05:30pm - WSW 9 13 1012.6 - - - - - - - - -
26/05:00pm - WSW 8 10 1012.2 - - - - - - - - -
26/04:30pm - W 8 11 1012.1 - - - - - - - - -
26/04:00pm - WSW 8 12 1012.0 - - - - - - - - -
26/03:30pm - W 8 11 1011.8 - - - - - - - - -
26/03:00pm - W 8 10 1011.9 - - - - - - - - -
26/02:30pm - W 8 10 1012.1 - - - - - - - - -
26/02:00pm - W 8 11 1012.3 - - - - - - - - -
26/01:30pm - W 9 11 1012.5 - - - - - - - - -
26/01:00pm - W 8 11 1012.7 - - - - - - - - -
26/12:30pm - W 8 12 1013.3 - - - - - - - - -
26/12:00pm - WSW 8 10 1013.8 - - - - - - - - -
26/11:30am - SW 5 7 1014.1 - - - - - - - - -
26/11:00am - SW 6 9 1014.6 - - - - - - - - -
26/10:30am - SSW 5 7 1014.8 - - - - - - - - -
26/10:00am - SSW 5 7 1014.9 - - - - - - - - -
26/09:30am - S 5 7 1015.0 - - - - - - - - -
26/09:00am - S 5 6 1015.1 - - - - - - - - -
26/08:30am - S 5 7 1014.9 - - - - - - - - -
26/08:00am - SSE 5 7 1014.5 - - - - - - - - -
26/07:30am - SE 5 8 1014.0 - - - - - - - - -
26/07:00am - S 8 10 1013.6 - - - - - - - - -
26/06:30am - S 8 10 1013.3 - - - - - - - - -
26/06:00am - S 8 11 1013.2 - - - - - - - - -
26/05:30am - SSW 7 10 1012.8 - - - - - - - - -
26/05:00am - SSW 7 10 1012.6 - - - - - - - - -
26/04:30am - SSW 6 9 1012.4 - - - - - - - - -
26/04:00am - SSW 6 8 1012.3 - - - - - - - - -
26/03:30am - SSW 4 6 1012.2 - - - - - - - - -
26/03:00am - SSW 5 7 1012.1 - - - - - - - - -
26/02:30am - SW 4 7 1012.2 - - - - - - - - -
26/02:00am - SSW 5 8 1012.3 - - - - - - - - -
26/01:30am - SSW 5 7 1012.4 - - - - - - - - -
26/01:00am - SSW 4 7 1012.5 - - - - - - - - -
26/12:30am - SSW 3 6 1012.7 - - - - - - - - -
26/12:00am - SSW 4 7 1013.0 - - - - - - - - -
 
Date/Time
WST
Temp

°C
Wind Pressure Rain
since 9am
mm
Weather Cloud Vis
km
Sea
Height
m
Swell
Dir
 
Speed
knots
Gust
knots
hPa Trend Height
m
Period
s
Dir
25/11:30pm - SW 8 10 1012.8 - - - - - - - - -
25/11:00pm - WSW 7 8 1013.0 - - - - - - - - -
25/10:30pm - W 5 8 1013.1 - - - - - - - - -
25/10:00pm - W 6 9 1013.0 - - - - - - - - -
25/09:30pm - W 7 9 1013.0 - - - - - - - - -
25/09:00pm - W 6 8 1012.7 - - - - - - - - -
25/08:30pm - W 6 8 1012.6 - - - - - - - - -
25/08:00pm - W 7 8 1012.5 - - - - - - - - -
25/07:30pm - W 5 7 1012.3 - - - - - - - - -
25/07:00pm - W 5 8 1012.0 - - - - - - - - -
25/06:30pm - W 6 10 1011.6 - - - - - - - - -
25/06:00pm - WNW 8 11 1011.2 - - - - - - - - -
25/05:30pm - W 8 11 1010.9 - - - - - - - - -
25/05:00pm - WNW 6 10 1010.7 - - - - - - - - -
25/04:30pm - W 6 10 1010.5 - - - - - - - - -
25/04:00pm - W 9 12 1010.4 - - - - - - - - -
25/03:30pm - W 7 12 1010.2 - - - - - - - - -
25/03:00pm - W 10 11 1010.3 - - - - - - - - -
25/02:30pm - WNW 8 10 1010.3 - - - - - - - - -
25/02:00pm - W 7 8 1010.3 - - - - - - - - -
25/01:30pm - W 6 8 1010.4 - - - - - - - - -
25/01:00pm - W 5 7 1010.8 - - - - - - - - -
25/12:30pm - W 4 5 1011.4 - - - - - - - - -
25/12:00pm - SW 4 4 1011.8 - - - - - - - - -
25/11:30am - SW 3 4 1012.4 - - - - - - - - -
25/11:00am - SW 2 4 1013.0 - - - - - - - - -
25/10:30am - S 2 3 1013.1 - - - - - - - - -
25/10:00am - SSW 1 2 1013.2 - - - - - - - - -
25/09:30am - SSW 2 3 1013.5 - - - - - - - - -
25/09:00am - S 4 5 1013.5 - - - - - - - - -
25/08:30am - S 6 8 1013.3 - - - - - - - - -
25/08:00am - S 7 9 1013.1 - - - - - - - - -
25/07:30am - S 7 8 1012.8 - - - - - - - - -
25/07:00am - S 7 9 1012.7 - - - - - - - - -
25/06:30am - S 8 10 1012.4 - - - - - - - - -
25/06:00am - S 7 9 1012.2 - - - - - - - - -
25/05:30am - S 7 8 1011.9 - - - - - - - - -
25/05:00am - S 6 7 1011.8 - - - - - - - - -
25/04:30am - SSW 5 7 1011.5 - - - - - - - - -
25/04:00am - SSE 7 9 1011.5 - - - - - - - - -
25/03:30am - SSW 5 7 1011.3 - - - - - - - - -
25/03:00am - SSW 5 7 1011.2 - - - - - - - - -
25/02:30am - SSW 5 7 1011.3 - - - - - - - - -
25/02:00am - SSW 3 7 1011.6 - - - - - - - - -
25/01:30am - SSW 5 8 1011.8 - - - - - - - - -
25/01:00am - SSW 4 9 1012.0 - - - - - - - - -
25/12:30am - SSW 7 8 1012.1 - - - - - - - - -
25/12:00am - SW 5 6 1012.1 - - - - - - - - -
 
Date/Time
WST
Temp

°C
Wind Pressure Rain
since 9am
mm
Weather Cloud Vis
km
Sea
Height
m
Swell
Dir
 
Speed
knots
Gust
knots
hPa Trend Height
m
Period
s
Dir
24/11:30pm - SW 4 6 1012.2 - - - - - - - - -
24/11:00pm - SW 6 7 1012.2 - - - - - - - - -
24/10:30pm - SSW 6 7 1012.3 - - - - - - - - -
24/10:00pm - SW 8 9 1012.2 - - - - - - - - -
24/09:30pm - SW 8 9 1012.5 - - - - - - - - -
24/09:00pm - WSW 9 10 1012.5 - - - - - - - - -
24/08:30pm - WSW 10 12 1012.7 - - - - - - - - -
24/08:00pm - WSW 11 14 1012.7 - - - - - - - - -
24/07:30pm - WSW 12 15 1012.4 - - - - - - - - -
24/07:00pm - WSW 11 13 1012.2 - - - - - - - - -
24/06:30pm - W 11 13 1011.9 - - - - - - - - -
24/06:00pm - W 12 15 1011.6 - - - - - - - - -
24/05:30pm - W 11 14 1011.5 - - - - - - - - -
24/05:00pm - W 11 13 1011.3 - - - - - - - - -
24/04:30pm - W 10 13 1011.3 - - - - - - - - -
24/04:00pm - W 11 13 1011.3 - - - - - - - - -
24/03:30pm 26.0 W 10 12 1011.2 - - - - - - - - -
24/03:00pm - W 9 11 1011.1 - - - - - - - - -

Other Formats:

Comma delimited format used in spreadsheet applications
http://www.bom.gov.au/fwo/IDW60701/IDW60701.95202.axf

JavaScript Object Notation format (JSON) in row-major order
http://www.bom.gov.au/fwo/IDW60701/IDW60701.95202.json